sensor_id;sensor_type;location;lat;lon;timestamp;P1;durP1;ratioP1;P2;durP2;ratioP2
26920;SDS011;14483;47.844;9.660;2023-05-10T00:00:55;0.75;;;0.63;;
26920;SDS011;14483;47.844;9.660;2023-05-10T00:03:22;0.43;;;0.22;;
26920;SDS011;14483;47.844;9.660;2023-05-10T00:05:48;0.38;;;0.35;;
26920;SDS011;14483;47.844;9.660;2023-05-10T00:08:15;0.80;;;0.40;;
26920;SDS011;14483;47.844;9.660;2023-05-10T00:10:41;0.50;;;0.40;;
26920;SDS011;14483;47.844;9.660;2023-05-10T00:13:07;1.20;;;0.63;;
26920;SDS011;14483;47.844;9.660;2023-05-10T00:15:34;1.80;;;0.40;;
26920;SDS011;14483;47.844;9.660;2023-05-10T00:18:02;0.60;;;0.40;;
26920;SDS011;14483;47.844;9.660;2023-05-10T00:20:28;0.40;;;0.30;;
26920;SDS011;14483;47.844;9.660;2023-05-10T00:22:54;1.00;;;0.30;;
26920;SDS011;14483;47.844;9.660;2023-05-10T00:25:21;0.40;;;0.30;;
26920;SDS011;14483;47.844;9.660;2023-05-10T00:27:47;1.02;;;0.40;;
26920;SDS011;14483;47.844;9.660;2023-05-10T00:30:14;1.88;;;0.80;;
26920;SDS011;14483;47.844;9.660;2023-05-10T00:32:41;0.47;;;0.30;;
26920;SDS011;14483;47.844;9.660;2023-05-10T00:35:09;0.30;;;0.20;;
26920;SDS011;14483;47.844;9.660;2023-05-10T00:37:36;0.90;;;0.38;;
26920;SDS011;14483;47.844;9.660;2023-05-10T00:40:02;3.90;;;0.30;;
26920;SDS011;14483;47.844;9.660;2023-05-10T00:42:29;1.95;;;0.20;;
26920;SDS011;14483;47.844;9.660;2023-05-10T00:44:56;0.38;;;0.30;;
26920;SDS011;14483;47.844;9.660;2023-05-10T00:47:22;1.23;;;0.30;;
26920;SDS011;14483;47.844;9.660;2023-05-10T00:49:49;0.98;;;0.25;;
26920;SDS011;14483;47.844;9.660;2023-05-10T00:52:17;0.60;;;0.20;;
26920;SDS011;14483;47.844;9.660;2023-05-10T00:54:43;0.20;;;0.10;;
26920;SDS011;14483;47.844;9.660;2023-05-10T00:57:10;0.50;;;0.10;;
26920;SDS011;14483;47.844;9.660;2023-05-10T00:59:36;1.38;;;0.30;;
26920;SDS011;14483;47.844;9.660;2023-05-10T01:02:03;0.20;;;0.00;;
26920;SDS011;14483;47.844;9.660;2023-05-10T01:04:29;0.40;;;0.10;;
26920;SDS011;14483;47.844;9.660;2023-05-10T01:06:56;1.95;;;0.15;;
26920;SDS011;14483;47.844;9.660;2023-05-10T01:09:24;0.95;;;0.10;;
26920;SDS011;14483;47.844;9.660;2023-05-10T01:11:51;4.82;;;0.20;;
26920;SDS011;14483;47.844;9.660;2023-05-10T01:14:18;1.58;;;0.10;;
26920;SDS011;14483;47.844;9.660;2023-05-10T01:16:45;1.63;;;0.20;;
26920;SDS011;14483;47.844;9.660;2023-05-10T01:19:16;0.75;;;0.17;;
26920;SDS011;14483;47.844;9.660;2023-05-10T01:21:45;0.20;;;0.10;;
26920;SDS011;14483;47.844;9.660;2023-05-10T01:27:17;0.85;;;0.08;;
26920;SDS011;14483;47.844;9.660;2023-05-10T01:32:32;0.70;;;0.10;;
26920;SDS011;14483;47.844;9.660;2023-05-10T01:35:00;0.55;;;0.20;;
26920;SDS011;14483;47.844;9.660;2023-05-10T01:37:31;0.50;;;0.20;;
26920;SDS011;14483;47.844;9.660;2023-05-10T01:40:00;0.40;;;0.20;;
26920;SDS011;14483;47.844;9.660;2023-05-10T01:42:29;0.52;;;0.22;;
26920;SDS011;14483;47.844;9.660;2023-05-10T01:44:59;0.93;;;0.17;;
26920;SDS011;14483;47.844;9.660;2023-05-10T01:47:29;1.85;;;0.20;;
26920;SDS011;14483;47.844;9.660;2023-05-10T01:49:59;1.25;;;0.38;;
26920;SDS011;14483;47.844;9.660;2023-05-10T01:52:27;0.82;;;0.10;;
26920;SDS011;14483;47.844;9.660;2023-05-10T01:55:02;0.60;;;0.30;;
26920;SDS011;14483;47.844;9.660;2023-05-10T01:57:32;0.10;;;0.10;;
26920;SDS011;14483;47.844;9.660;2023-05-10T01:59:59;0.40;;;0.10;;
26920;SDS011;14483;47.844;9.660;2023-05-10T02:02:27;0.20;;;0.20;;
26920;SDS011;14483;47.844;9.660;2023-05-10T02:04:55;0.20;;;0.15;;
26920;SDS011;14483;47.844;9.660;2023-05-10T02:07:24;0.08;;;0.08;;
26920;SDS011;14483;47.844;9.660;2023-05-10T02:09:50;0.40;;;0.30;;
26920;SDS011;14483;47.844;9.660;2023-05-10T02:12:17;1.85;;;0.20;;
26920;SDS011;14483;47.844;9.660;2023-05-10T02:14:44;0.15;;;0.10;;
26920;SDS011;14483;47.844;9.660;2023-05-10T02:17:11;1.33;;;0.20;;
26920;SDS011;14483;47.844;9.660;2023-05-10T02:19:38;2.42;;;0.30;;
26920;SDS011;14483;47.844;9.660;2023-05-10T02:22:05;5.55;;;0.43;;
26920;SDS011;14483;47.844;9.660;2023-05-10T02:24:33;0.50;;;0.20;;
26920;SDS011;14483;47.844;9.660;2023-05-10T02:26:59;1.50;;;0.20;;
26920;SDS011;14483;47.844;9.660;2023-05-10T02:29:26;1.10;;;0.25;;
26920;SDS011;14483;47.844;9.660;2023-05-10T02:31:53;1.23;;;0.60;;
26920;SDS011;14483;47.844;9.660;2023-05-10T02:34:20;2.17;;;0.20;;
26920;SDS011;14483;47.844;9.660;2023-05-10T02:36:47;1.75;;;0.20;;
26920;SDS011;14483;47.844;9.660;2023-05-10T02:39:14;1.10;;;0.25;;
26920;SDS011;14483;47.844;9.660;2023-05-10T02:41:42;0.35;;;0.10;;
26920;SDS011;14483;47.844;9.660;2023-05-10T02:44:08;1.75;;;0.20;;
26920;SDS011;14483;47.844;9.660;2023-05-10T02:46:35;0.90;;;0.20;;
26920;SDS011;14483;47.844;9.660;2023-05-10T02:49:02;0.73;;;0.32;;
26920;SDS011;14483;47.844;9.660;2023-05-10T02:51:30;0.90;;;0.30;;
26920;SDS011;14483;47.844;9.660;2023-05-10T02:53:59;3.70;;;0.35;;
26920;SDS011;14483;47.844;9.660;2023-05-10T02:56:28;0.38;;;0.20;;
26920;SDS011;14483;47.844;9.660;2023-05-10T02:58:57;0.28;;;0.20;;
26920;SDS011;14483;47.844;9.660;2023-05-10T03:01:23;1.95;;;0.20;;
26920;SDS011;14483;47.844;9.660;2023-05-10T03:03:50;1.10;;;0.47;;
26920;SDS011;14483;47.844;9.660;2023-05-10T03:06:16;2.20;;;0.20;;
26920;SDS011;14483;47.844;9.660;2023-05-10T03:08:42;0.30;;;0.20;;
26920;SDS011;14483;47.844;9.660;2023-05-10T03:11:14;1.55;;;0.40;;
26920;SDS011;14483;47.844;9.660;2023-05-10T03:13:44;1.75;;;0.20;;
26920;SDS011;14483;47.844;9.660;2023-05-10T03:16:16;0.65;;;0.20;;
26920;SDS011;14483;47.844;9.660;2023-05-10T03:18:47;4.05;;;0.45;;
26920;SDS011;14483;47.844;9.660;2023-05-10T03:21:17;0.57;;;0.30;;
26920;SDS011;14483;47.844;9.660;2023-05-10T03:23:46;0.38;;;0.30;;
26920;SDS011;14483;47.844;9.660;2023-05-10T03:26:12;0.60;;;0.30;;
26920;SDS011;14483;47.844;9.660;2023-05-10T03:28:41;1.20;;;0.30;;
26920;SDS011;14483;47.844;9.660;2023-05-10T03:31:07;2.88;;;0.95;;
26920;SDS011;14483;47.844;9.660;2023-05-10T03:33:35;0.45;;;0.15;;
26920;SDS011;14483;47.844;9.660;2023-05-10T03:36:11;2.45;;;0.30;;
26920;SDS011;14483;47.844;9.660;2023-05-10T03:38:37;0.82;;;0.28;;
26920;SDS011;14483;47.844;9.660;2023-05-10T03:41:04;0.68;;;0.30;;
26920;SDS011;14483;47.844;9.660;2023-05-10T03:43:30;1.25;;;0.40;;
26920;SDS011;14483;47.844;9.660;2023-05-10T03:45:56;0.20;;;0.20;;
26920;SDS011;14483;47.844;9.660;2023-05-10T03:48:23;2.38;;;0.25;;
26920;SDS011;14483;47.844;9.660;2023-05-10T03:50:50;1.55;;;0.30;;
26920;SDS011;14483;47.844;9.660;2023-05-10T03:53:17;0.45;;;0.20;;
26920;SDS011;14483;47.844;9.660;2023-05-10T03:55:43;0.77;;;0.20;;
26920;SDS011;14483;47.844;9.660;2023-05-10T03:58:10;0.22;;;0.20;;
26920;SDS011;14483;47.844;9.660;2023-05-10T04:00:37;0.77;;;0.32;;
26920;SDS011;14483;47.844;9.660;2023-05-10T04:03:08;1.02;;;0.40;;
26920;SDS011;14483;47.844;9.660;2023-05-10T04:05:34;0.82;;;0.60;;
26920;SDS011;14483;47.844;9.660;2023-05-10T04:08:02;0.90;;;0.30;;
26920;SDS011;14483;47.844;9.660;2023-05-10T04:10:29;0.45;;;0.30;;
26920;SDS011;14483;47.844;9.660;2023-05-10T04:12:55;0.57;;;0.40;;
26920;SDS011;14483;47.844;9.660;2023-05-10T04:15:21;1.10;;;0.20;;
26920;SDS011;14483;47.844;9.660;2023-05-10T04:17:48;1.20;;;0.30;;
26920;SDS011;14483;47.844;9.660;2023-05-10T04:20:15;0.32;;;0.30;;
26920;SDS011;14483;47.844;9.660;2023-05-10T04:22:42;0.85;;;0.40;;
26920;SDS011;14483;47.844;9.660;2023-05-10T04:25:10;1.42;;;0.60;;
26920;SDS011;14483;47.844;9.660;2023-05-10T04:27:36;0.85;;;0.50;;
26920;SDS011;14483;47.844;9.660;2023-05-10T04:30:03;0.77;;;0.38;;
26920;SDS011;14483;47.844;9.660;2023-05-10T04:32:30;0.60;;;0.35;;
26920;SDS011;14483;47.844;9.660;2023-05-10T04:34:57;1.45;;;0.30;;
26920;SDS011;14483;47.844;9.660;2023-05-10T04:37:23;1.60;;;0.40;;
26920;SDS011;14483;47.844;9.660;2023-05-10T04:39:50;1.15;;;0.40;;
26920;SDS011;14483;47.844;9.660;2023-05-10T04:42:18;0.70;;;0.45;;
26920;SDS011;14483;47.844;9.660;2023-05-10T04:44:44;0.95;;;0.50;;
26920;SDS011;14483;47.844;9.660;2023-05-10T04:47:10;1.35;;;0.40;;
26920;SDS011;14483;47.844;9.660;2023-05-10T04:49:38;0.70;;;0.47;;
26920;SDS011;14483;47.844;9.660;2023-05-10T04:52:04;0.30;;;0.28;;
26920;SDS011;14483;47.844;9.660;2023-05-10T04:54:31;1.08;;;0.60;;
26920;SDS011;14483;47.844;9.660;2023-05-10T04:56:57;1.33;;;0.45;;
26920;SDS011;14483;47.844;9.660;2023-05-10T04:59:25;0.40;;;0.35;;
26920;SDS011;14483;47.844;9.660;2023-05-10T05:01:51;2.53;;;0.50;;
26920;SDS011;14483;47.844;9.660;2023-05-10T05:04:18;5.07;;;0.30;;
26920;SDS011;14483;47.844;9.660;2023-05-10T05:06:44;2.55;;;0.57;;
26920;SDS011;14483;47.844;9.660;2023-05-10T05:09:10;2.88;;;0.50;;
26920;SDS011;14483;47.844;9.660;2023-05-10T05:11:37;0.60;;;0.30;;
26920;SDS011;14483;47.844;9.660;2023-05-10T05:14:03;3.30;;;0.60;;
26920;SDS011;14483;47.844;9.660;2023-05-10T05:16:31;1.02;;;0.40;;
26920;SDS011;14483;47.844;9.660;2023-05-10T05:18:57;3.38;;;0.40;;
26920;SDS011;14483;47.844;9.660;2023-05-10T05:21:24;0.73;;;0.40;;
26920;SDS011;14483;47.844;9.660;2023-05-10T05:23:51;3.35;;;1.00;;
26920;SDS011;14483;47.844;9.660;2023-05-10T05:26:18;4.13;;;0.68;;
26920;SDS011;14483;47.844;9.660;2023-05-10T05:28:44;3.25;;;0.70;;
26920;SDS011;14483;47.844;9.660;2023-05-10T05:31:10;3.53;;;0.70;;
26920;SDS011;14483;47.844;9.660;2023-05-10T05:33:38;1.40;;;0.82;;
26920;SDS011;14483;47.844;9.660;2023-05-10T05:36:05;1.70;;;0.70;;
26920;SDS011;14483;47.844;9.660;2023-05-10T05:38:31;1.85;;;0.57;;
26920;SDS011;14483;47.844;9.660;2023-05-10T05:40:58;2.15;;;0.52;;
26920;SDS011;14483;47.844;9.660;2023-05-10T05:43:24;1.80;;;0.52;;
26920;SDS011;14483;47.844;9.660;2023-05-10T05:45:51;0.90;;;0.50;;
26920;SDS011;14483;47.844;9.660;2023-05-10T05:48:18;1.35;;;0.70;;
26920;SDS011;14483;47.844;9.660;2023-05-10T05:50:45;2.53;;;0.63;;
26920;SDS011;14483;47.844;9.660;2023-05-10T05:53:12;3.00;;;0.63;;
26920;SDS011;14483;47.844;9.660;2023-05-10T05:55:38;1.23;;;0.68;;
26920;SDS011;14483;47.844;9.660;2023-05-10T05:58:05;2.22;;;0.60;;
26920;SDS011;14483;47.844;9.660;2023-05-10T06:00:31;1.30;;;0.45;;
26920;SDS011;14483;47.844;9.660;2023-05-10T06:02:57;1.23;;;0.60;;
26920;SDS011;14483;47.844;9.660;2023-05-10T06:05:24;1.10;;;0.47;;
26920;SDS011;14483;47.844;9.660;2023-05-10T06:07:52;3.13;;;0.93;;
26920;SDS011;14483;47.844;9.660;2023-05-10T06:10:18;1.02;;;0.73;;
26920;SDS011;14483;47.844;9.660;2023-05-10T06:12:44;1.35;;;0.40;;
26920;SDS011;14483;47.844;9.660;2023-05-10T06:15:11;2.08;;;0.50;;
26920;SDS011;14483;47.844;9.660;2023-05-10T06:17:37;0.90;;;0.45;;
26920;SDS011;14483;47.844;9.660;2023-05-10T06:20:04;0.75;;;0.50;;
26920;SDS011;14483;47.844;9.660;2023-05-10T06:22:31;3.35;;;0.70;;
26920;SDS011;14483;47.844;9.660;2023-05-10T06:24:58;1.13;;;0.70;;
26920;SDS011;14483;47.844;9.660;2023-05-10T06:27:25;1.05;;;0.50;;
26920;SDS011;14483;47.844;9.660;2023-05-10T06:29:51;3.80;;;0.50;;
26920;SDS011;14483;47.844;9.660;2023-05-10T06:32:17;3.67;;;0.45;;
26920;SDS011;14483;47.844;9.660;2023-05-10T06:34:44;2.17;;;0.50;;
26920;SDS011;14483;47.844;9.660;2023-05-10T06:37:11;2.80;;;0.60;;
26920;SDS011;14483;47.844;9.660;2023-05-10T06:39:37;0.65;;;0.50;;
26920;SDS011;14483;47.844;9.660;2023-05-10T06:42:05;2.38;;;0.50;;
26920;SDS011;14483;47.844;9.660;2023-05-10T06:44:31;0.55;;;0.40;;
26920;SDS011;14483;47.844;9.660;2023-05-10T06:46:58;0.85;;;0.40;;
26920;SDS011;14483;47.844;9.660;2023-05-10T06:49:24;3.17;;;0.60;;
26920;SDS011;14483;47.844;9.660;2023-05-10T06:51:50;2.58;;;0.38;;
26920;SDS011;14483;47.844;9.660;2023-05-10T06:54:17;2.42;;;0.68;;
26920;SDS011;14483;47.844;9.660;2023-05-10T06:56:43;0.95;;;0.50;;
26920;SDS011;14483;47.844;9.660;2023-05-10T06:59:11;1.52;;;0.50;;
26920;SDS011;14483;47.844;9.660;2023-05-10T07:01:38;3.90;;;0.60;;
26920;SDS011;14483;47.844;9.660;2023-05-10T07:04:04;1.00;;;0.45;;
26920;SDS011;14483;47.844;9.660;2023-05-10T07:06:32;2.10;;;0.70;;
26920;SDS011;14483;47.844;9.660;2023-05-10T07:08:58;0.63;;;0.47;;
26920;SDS011;14483;47.844;9.660;2023-05-10T07:11:25;1.27;;;0.50;;
26920;SDS011;14483;47.844;9.660;2023-05-10T07:13:52;2.78;;;0.40;;
26920;SDS011;14483;47.844;9.660;2023-05-10T07:16:20;2.38;;;0.40;;
26920;SDS011;14483;47.844;9.660;2023-05-10T07:18:46;0.45;;;0.32;;
26920;SDS011;14483;47.844;9.660;2023-05-10T07:21:13;1.77;;;0.40;;
26920;SDS011;14483;47.844;9.660;2023-05-10T07:23:39;3.83;;;0.55;;
26920;SDS011;14483;47.844;9.660;2023-05-10T07:26:05;1.92;;;0.47;;
26920;SDS011;14483;47.844;9.660;2023-05-10T07:28:32;1.40;;;0.40;;
26920;SDS011;14483;47.844;9.660;2023-05-10T07:30:58;1.05;;;0.40;;
26920;SDS011;14483;47.844;9.660;2023-05-10T07:33:26;2.65;;;0.60;;
26920;SDS011;14483;47.844;9.660;2023-05-10T07:35:52;1.92;;;0.50;;
26920;SDS011;14483;47.844;9.660;2023-05-10T07:38:18;1.55;;;0.38;;
26920;SDS011;14483;47.844;9.660;2023-05-10T07:40:45;2.78;;;0.55;;
26920;SDS011;14483;47.844;9.660;2023-05-10T07:43:11;0.70;;;0.35;;
26920;SDS011;14483;47.844;9.660;2023-05-10T07:45:37;0.30;;;0.30;;
26920;SDS011;14483;47.844;9.660;2023-05-10T07:48:04;3.80;;;0.50;;
26920;SDS011;14483;47.844;9.660;2023-05-10T07:50:32;1.13;;;0.40;;
26920;SDS011;14483;47.844;9.660;2023-05-10T07:52:58;0.98;;;0.30;;
26920;SDS011;14483;47.844;9.660;2023-05-10T07:55:25;2.85;;;0.40;;
26920;SDS011;14483;47.844;9.660;2023-05-10T07:57:51;0.90;;;0.40;;
26920;SDS011;14483;47.844;9.660;2023-05-10T08:00:18;1.30;;;0.22;;
26920;SDS011;14483;47.844;9.660;2023-05-10T08:02:45;2.67;;;0.38;;
26920;SDS011;14483;47.844;9.660;2023-05-10T08:05:11;1.05;;;0.40;;
26920;SDS011;14483;47.844;9.660;2023-05-10T08:07:39;2.25;;;0.40;;
26920;SDS011;14483;47.844;9.660;2023-05-10T08:10:06;1.15;;;0.30;;
26920;SDS011;14483;47.844;9.660;2023-05-10T08:12:33;1.00;;;0.40;;
26920;SDS011;14483;47.844;9.660;2023-05-10T08:14:59;0.82;;;0.40;;
26920;SDS011;14483;47.844;9.660;2023-05-10T08:17:26;1.15;;;0.30;;
26920;SDS011;14483;47.844;9.660;2023-05-10T08:19:52;1.13;;;0.73;;
26920;SDS011;14483;47.844;9.660;2023-05-10T08:22:18;1.27;;;0.30;;
26920;SDS011;14483;47.844;9.660;2023-05-10T08:24:46;1.70;;;0.30;;
26920;SDS011;14483;47.844;9.660;2023-05-10T08:27:12;0.85;;;0.57;;
26920;SDS011;14483;47.844;9.660;2023-05-10T08:29:39;0.63;;;0.40;;
26920;SDS011;14483;47.844;9.660;2023-05-10T08:32:05;3.33;;;0.65;;
26920;SDS011;14483;47.844;9.660;2023-05-10T08:34:31;0.95;;;0.50;;
26920;SDS011;14483;47.844;9.660;2023-05-10T08:36:58;3.60;;;0.50;;
26920;SDS011;14483;47.844;9.660;2023-05-10T08:39:24;0.90;;;0.32;;
26920;SDS011;14483;47.844;9.660;2023-05-10T08:41:52;0.82;;;0.40;;
26920;SDS011;14483;47.844;9.660;2023-05-10T08:44:19;1.83;;;0.52;;
26920;SDS011;14483;47.844;9.660;2023-05-10T08:46:46;1.60;;;0.47;;
26920;SDS011;14483;47.844;9.660;2023-05-10T08:49:13;1.23;;;0.47;;
26920;SDS011;14483;47.844;9.660;2023-05-10T08:51:44;1.45;;;0.38;;
26920;SDS011;14483;47.844;9.660;2023-05-10T08:54:13;0.80;;;0.50;;
26920;SDS011;14483;47.844;9.660;2023-05-10T08:56:39;1.13;;;0.40;;
26920;SDS011;14483;47.844;9.660;2023-05-10T08:59:07;0.82;;;0.57;;
26920;SDS011;14483;47.844;9.660;2023-05-10T09:01:34;1.40;;;0.30;;
26920;SDS011;14483;47.844;9.660;2023-05-10T09:04:01;2.88;;;0.30;;
26920;SDS011;14483;47.844;9.660;2023-05-10T09:06:27;1.50;;;0.30;;
26920;SDS011;14483;47.844;9.660;2023-05-10T09:08:54;4.03;;;0.40;;
26920;SDS011;14483;47.844;9.660;2023-05-10T09:11:20;3.97;;;0.30;;
26920;SDS011;14483;47.844;9.660;2023-05-10T09:13:47;0.50;;;0.25;;
26920;SDS011;14483;47.844;9.660;2023-05-10T09:16:15;1.50;;;0.30;;
26920;SDS011;14483;47.844;9.660;2023-05-10T09:18:41;2.17;;;0.30;;
26920;SDS011;14483;47.844;9.660;2023-05-10T09:21:08;0.82;;;0.30;;
26920;SDS011;14483;47.844;9.660;2023-05-10T09:23:35;6.05;;;0.38;;
26920;SDS011;14483;47.844;9.660;2023-05-10T09:26:02;0.40;;;0.40;;
26920;SDS011;14483;47.844;9.660;2023-05-10T09:28:31;0.75;;;0.32;;
26920;SDS011;14483;47.844;9.660;2023-05-10T09:30:57;3.50;;;0.30;;
26920;SDS011;14483;47.844;9.660;2023-05-10T09:33:25;1.10;;;0.22;;
26920;SDS011;14483;47.844;9.660;2023-05-10T09:35:51;1.65;;;0.13;;
26920;SDS011;14483;47.844;9.660;2023-05-10T09:38:18;4.85;;;1.55;;
26920;SDS011;14483;47.844;9.660;2023-05-10T09:40:46;0.98;;;0.20;;
26920;SDS011;14483;47.844;9.660;2023-05-10T09:43:19;1.10;;;0.30;;
26920;SDS011;14483;47.844;9.660;2023-05-10T09:45:46;0.75;;;0.20;;
26920;SDS011;14483;47.844;9.660;2023-05-10T09:48:14;0.40;;;0.20;;
26920;SDS011;14483;47.844;9.660;2023-05-10T09:50:42;1.70;;;0.20;;
26920;SDS011;14483;47.844;9.660;2023-05-10T09:53:08;0.70;;;0.15;;
26920;SDS011;14483;47.844;9.660;2023-05-10T09:55:38;0.73;;;0.20;;
26920;SDS011;14483;47.844;9.660;2023-05-10T09:58:05;4.85;;;0.28;;
26920;SDS011;14483;47.844;9.660;2023-05-10T10:00:35;0.68;;;0.17;;
26920;SDS011;14483;47.844;9.660;2023-05-10T10:03:02;0.63;;;0.20;;
26920;SDS011;14483;47.844;9.660;2023-05-10T10:05:29;2.55;;;0.20;;
26920;SDS011;14483;47.844;9.660;2023-05-10T10:07:58;4.40;;;0.32;;
26920;SDS011;14483;47.844;9.660;2023-05-10T10:10:24;0.20;;;0.10;;
26920;SDS011;14483;47.844;9.660;2023-05-10T10:12:51;0.95;;;0.28;;
26920;SDS011;14483;47.844;9.660;2023-05-10T10:15:17;2.70;;;0.30;;
26920;SDS011;14483;47.844;9.660;2023-05-10T10:17:44;3.97;;;0.50;;
26920;SDS011;14483;47.844;9.660;2023-05-10T10:20:11;0.17;;;0.10;;
26920;SDS011;14483;47.844;9.660;2023-05-10T10:22:38;2.33;;;0.22;;
26920;SDS011;14483;47.844;9.660;2023-05-10T10:25:07;1.58;;;0.30;;
26920;SDS011;14483;47.844;9.660;2023-05-10T10:27:36;4.15;;;0.40;;
26920;SDS011;14483;47.844;9.660;2023-05-10T10:30:09;1.63;;;0.30;;
26920;SDS011;14483;47.844;9.660;2023-05-10T10:32:42;1.60;;;0.32;;
26920;SDS011;14483;47.844;9.660;2023-05-10T10:35:15;2.88;;;0.30;;
26920;SDS011;14483;47.844;9.660;2023-05-10T10:37:43;0.57;;;0.30;;
26920;SDS011;14483;47.844;9.660;2023-05-10T10:40:26;3.03;;;0.47;;
26920;SDS011;14483;47.844;9.660;2023-05-10T10:42:53;0.75;;;0.30;;
26920;SDS011;14483;47.844;9.660;2023-05-10T10:45:20;1.30;;;0.40;;
26920;SDS011;14483;47.844;9.660;2023-05-10T10:47:47;2.15;;;0.25;;
26920;SDS011;14483;47.844;9.660;2023-05-10T10:50:14;1.90;;;0.30;;
26920;SDS011;14483;47.844;9.660;2023-05-10T10:52:41;2.05;;;0.40;;
26920;SDS011;14483;47.844;9.660;2023-05-10T10:55:09;2.17;;;0.47;;
26920;SDS011;14483;47.844;9.660;2023-05-10T10:57:46;4.10;;;0.60;;
26920;SDS011;14483;47.844;9.660;2023-05-10T11:00:23;0.77;;;0.50;;
26920;SDS011;14483;47.844;9.660;2023-05-10T11:02:50;1.65;;;0.10;;
26920;SDS011;14483;47.844;9.660;2023-05-10T11:05:24;0.30;;;0.10;;
26920;SDS011;14483;47.844;9.660;2023-05-10T11:07:54;2.28;;;0.20;;
26920;SDS011;14483;47.844;9.660;2023-05-10T11:10:21;2.17;;;0.10;;
26920;SDS011;14483;47.844;9.660;2023-05-10T11:12:52;0.43;;;0.10;;
26920;SDS011;14483;47.844;9.660;2023-05-10T11:15:19;1.02;;;0.20;;
26920;SDS011;14483;47.844;9.660;2023-05-10T11:17:47;0.98;;;0.10;;
26920;SDS011;14483;47.844;9.660;2023-05-10T11:20:16;0.68;;;0.22;;
26920;SDS011;14483;47.844;9.660;2023-05-10T11:22:51;1.52;;;0.20;;
26920;SDS011;14483;47.844;9.660;2023-05-10T11:25:17;3.00;;;0.80;;
26920;SDS011;14483;47.844;9.660;2023-05-10T11:27:44;1.25;;;0.47;;
26920;SDS011;14483;47.844;9.660;2023-05-10T11:30:12;0.95;;;0.40;;
26920;SDS011;14483;47.844;9.660;2023-05-10T11:32:39;0.60;;;0.20;;
26920;SDS011;14483;47.844;9.660;2023-05-10T11:35:06;0.77;;;0.30;;
26920;SDS011;14483;47.844;9.660;2023-05-10T11:37:33;1.00;;;0.30;;
26920;SDS011;14483;47.844;9.660;2023-05-10T11:39:59;2.63;;;0.32;;
26920;SDS011;14483;47.844;9.660;2023-05-10T11:42:27;0.13;;;0.10;;
26920;SDS011;14483;47.844;9.660;2023-05-10T11:44:53;1.02;;;0.10;;
26920;SDS011;14483;47.844;9.660;2023-05-10T11:47:21;0.73;;;0.20;;
26920;SDS011;14483;47.844;9.660;2023-05-10T11:49:48;0.82;;;0.28;;
26920;SDS011;14483;47.844;9.660;2023-05-10T11:52:15;0.63;;;0.30;;
26920;SDS011;14483;47.844;9.660;2023-05-10T11:54:44;0.85;;;0.30;;
26920;SDS011;14483;47.844;9.660;2023-05-10T11:57:11;0.80;;;0.22;;
26920;SDS011;14483;47.844;9.660;2023-05-10T11:59:37;1.02;;;0.38;;
26920;SDS011;14483;47.844;9.660;2023-05-10T12:02:03;2.22;;;0.30;;
26920;SDS011;14483;47.844;9.660;2023-05-10T12:04:31;0.75;;;0.30;;
26920;SDS011;14483;47.844;9.660;2023-05-10T12:06:58;1.05;;;0.30;;
26920;SDS011;14483;47.844;9.660;2023-05-10T12:09:25;0.93;;;0.40;;
26920;SDS011;14483;47.844;9.660;2023-05-10T12:11:54;1.55;;;0.47;;
26920;SDS011;14483;47.844;9.660;2023-05-10T12:14:21;24.25;;;14.63;;
26920;SDS011;14483;47.844;9.660;2023-05-10T12:16:47;50.60;;;31.73;;
26920;SDS011;14483;47.844;9.660;2023-05-10T12:19:18;62.20;;;36.00;;
26920;SDS011;14483;47.844;9.660;2023-05-10T12:21:45;21.83;;;12.88;;
26920;SDS011;14483;47.844;9.660;2023-05-10T12:24:13;36.13;;;15.32;;
26920;SDS011;14483;47.844;9.660;2023-05-10T12:26:41;63.45;;;26.55;;
26920;SDS011;14483;47.844;9.660;2023-05-10T12:29:14;18.98;;;8.80;;
26920;SDS011;14483;47.844;9.660;2023-05-10T12:31:51;137.63;;;56.70;;
26920;SDS011;14483;47.844;9.660;2023-05-10T12:34:22;30.70;;;19.25;;
26920;SDS011;14483;47.844;9.660;2023-05-10T12:36:51;6.97;;;4.45;;
26920;SDS011;14483;47.844;9.660;2023-05-10T12:39:17;4.00;;;2.05;;
26920;SDS011;14483;47.844;9.660;2023-05-10T12:41:44;2.50;;;1.83;;
26920;SDS011;14483;47.844;9.660;2023-05-10T12:44:10;2.83;;;2.63;;
26920;SDS011;14483;47.844;9.660;2023-05-10T12:46:36;2.53;;;1.05;;
26920;SDS011;14483;47.844;9.660;2023-05-10T12:49:03;3.78;;;0.70;;
26920;SDS011;14483;47.844;9.660;2023-05-10T12:51:29;1.35;;;0.80;;
26920;SDS011;14483;47.844;9.660;2023-05-10T12:53:57;3.50;;;0.40;;
26920;SDS011;14483;47.844;9.660;2023-05-10T12:56:24;1.25;;;0.85;;
26920;SDS011;14483;47.844;9.660;2023-05-10T12:58:50;1.52;;;0.80;;
26920;SDS011;14483;47.844;9.660;2023-05-10T13:01:16;1.10;;;0.60;;
26920;SDS011;14483;47.844;9.660;2023-05-10T13:03:43;1.60;;;0.70;;
26920;SDS011;14483;47.844;9.660;2023-05-10T13:06:09;1.25;;;0.30;;
26920;SDS011;14483;47.844;9.660;2023-05-10T13:08:35;2.15;;;0.50;;
26920;SDS011;14483;47.844;9.660;2023-05-10T13:11:03;1.23;;;0.40;;
26920;SDS011;14483;47.844;9.660;2023-05-10T13:13:30;1.00;;;0.20;;
26920;SDS011;14483;47.844;9.660;2023-05-10T13:15:56;1.27;;;0.40;;
26920;SDS011;14483;47.844;9.660;2023-05-10T13:18:22;0.75;;;0.30;;
26920;SDS011;14483;47.844;9.660;2023-05-10T13:20:49;0.25;;;0.10;;
26920;SDS011;14483;47.844;9.660;2023-05-10T13:23:16;0.93;;;0.30;;
26920;SDS011;14483;47.844;9.660;2023-05-10T13:25:42;1.45;;;0.25;;
26920;SDS011;14483;47.844;9.660;2023-05-10T13:28:10;5.57;;;0.40;;
26920;SDS011;14483;47.844;9.660;2023-05-10T13:30:36;1.10;;;0.30;;
26920;SDS011;14483;47.844;9.660;2023-05-10T13:33:03;1.75;;;0.40;;
26920;SDS011;14483;47.844;9.660;2023-05-10T13:35:29;1.52;;;0.40;;
26920;SDS011;14483;47.844;9.660;2023-05-10T13:37:55;0.30;;;0.20;;
26920;SDS011;14483;47.844;9.660;2023-05-10T13:40:22;0.60;;;0.30;;
26920;SDS011;14483;47.844;9.660;2023-05-10T13:42:49;1.65;;;0.55;;
26920;SDS011;14483;47.844;9.660;2023-05-10T13:45:17;1.20;;;0.40;;
26920;SDS011;14483;47.844;9.660;2023-05-10T13:47:43;1.20;;;0.70;;
26920;SDS011;14483;47.844;9.660;2023-05-10T13:50:09;3.03;;;0.57;;
26920;SDS011;14483;47.844;9.660;2023-05-10T13:52:36;3.33;;;0.70;;
26920;SDS011;14483;47.844;9.660;2023-05-10T13:55:02;5.15;;;0.80;;
26920;SDS011;14483;47.844;9.660;2023-05-10T13:57:29;1.00;;;0.40;;
26920;SDS011;14483;47.844;9.660;2023-05-10T13:59:56;1.90;;;0.50;;
26920;SDS011;14483;47.844;9.660;2023-05-10T14:02:24;3.35;;;0.82;;
26920;SDS011;14483;47.844;9.660;2023-05-10T14:04:52;1.95;;;0.60;;
26920;SDS011;14483;47.844;9.660;2023-05-10T14:07:18;5.32;;;0.90;;
26920;SDS011;14483;47.844;9.660;2023-05-10T14:09:45;5.72;;;1.67;;
26920;SDS011;14483;47.844;9.660;2023-05-10T14:12:11;5.05;;;0.63;;
26920;SDS011;14483;47.844;9.660;2023-05-10T14:14:39;1.95;;;0.50;;
26920;SDS011;14483;47.844;9.660;2023-05-10T14:17:06;1.63;;;0.40;;
26920;SDS011;14483;47.844;9.660;2023-05-10T14:19:33;2.70;;;0.40;;
26920;SDS011;14483;47.844;9.660;2023-05-10T14:22:00;2.65;;;0.30;;
26920;SDS011;14483;47.844;9.660;2023-05-10T14:24:26;0.55;;;0.20;;
26920;SDS011;14483;47.844;9.660;2023-05-10T14:26:53;1.05;;;0.40;;
26920;SDS011;14483;47.844;9.660;2023-05-10T14:29:19;1.42;;;0.43;;
26920;SDS011;14483;47.844;9.660;2023-05-10T14:31:46;1.27;;;0.40;;
26920;SDS011;14483;47.844;9.660;2023-05-10T14:34:12;0.90;;;0.30;;
26920;SDS011;14483;47.844;9.660;2023-05-10T14:36:40;2.20;;;0.50;;
26920;SDS011;14483;47.844;9.660;2023-05-10T14:39:06;0.43;;;0.30;;
26920;SDS011;14483;47.844;9.660;2023-05-10T14:41:33;0.95;;;0.40;;
26920;SDS011;14483;47.844;9.660;2023-05-10T14:43:59;1.95;;;0.40;;
26920;SDS011;14483;47.844;9.660;2023-05-10T14:46:26;1.50;;;0.32;;
26920;SDS011;14483;47.844;9.660;2023-05-10T14:48:52;1.20;;;0.40;;
26920;SDS011;14483;47.844;9.660;2023-05-10T14:51:19;0.75;;;0.30;;
26920;SDS011;14483;47.844;9.660;2023-05-10T14:53:48;2.40;;;0.43;;